createdAt,value
2018-06-12T00:00:09.870Z,0
2018-06-12T00:01:20.085Z,0
2018-06-12T00:02:30.225Z,0
2018-06-12T00:03:40.362Z,0
2018-06-12T00:04:50.496Z,0
2018-06-12T00:06:00.655Z,0
2018-06-12T00:07:10.518Z,0
2018-06-12T00:08:20.909Z,0
2018-06-12T00:09:31.136Z,0
2018-06-12T00:10:41.445Z,0
2018-06-12T00:11:51.606Z,0
2018-06-12T00:13:01.645Z,0
2018-06-12T00:14:11.775Z,0
2018-06-12T00:15:22.181Z,0
2018-06-12T00:16:32.314Z,0
2018-06-12T00:17:42.448Z,0
2018-06-12T00:18:52.369Z,0
2018-06-12T00:20:02.756Z,0
2018-06-12T00:21:13.026Z,0
2018-06-12T00:22:22.938Z,0
2018-06-12T00:23:32.901Z,0
2018-06-12T00:24:43.057Z,0
2018-06-12T00:25:53.303Z,0
2018-06-12T00:27:03.428Z,0
2018-06-12T00:28:13.253Z,0
2018-06-12T00:29:23.079Z,0
2018-06-12T00:30:33.227Z,0
2018-06-12T00:31:43.421Z,0
2018-06-12T00:32:53.631Z,0
2018-06-12T00:34:03.835Z,0
2018-06-12T00:35:14.148Z,0
2018-06-12T00:36:24.414Z,0
2018-06-12T00:37:34.784Z,0
2018-06-12T00:38:44.934Z,0
2018-06-12T00:39:55.083Z,0
2018-06-12T00:41:05.256Z,0
2018-06-12T00:42:15.465Z,0
2018-06-12T00:43:25.635Z,0
2018-06-12T00:44:35.868Z,0
2018-06-12T00:45:46.125Z,0
2018-06-12T00:46:56.603Z,0
2018-06-12T00:48:10.543Z,0
2018-06-12T00:49:20.744Z,0
2018-06-12T00:50:30.891Z,0
2018-06-12T00:51:41.085Z,0
2018-06-12T00:52:51.328Z,0
2018-06-12T00:54:01.735Z,0
2018-06-12T00:55:11.879Z,0
2018-06-12T00:56:22.244Z,0
2018-06-12T00:57:32.620Z,0
2018-06-12T00:58:42.770Z,0
2018-06-12T00:59:52.909Z,0
2018-06-12T01:01:03.092Z,0
2018-06-12T01:02:13.256Z,0
2018-06-12T01:03:26.871Z,0
2018-06-12T01:04:38.257Z,0
2018-06-12T01:05:52.796Z,0
2018-06-12T01:07:02.966Z,0
2018-06-12T01:08:13.179Z,0
2018-06-12T01:09:23.354Z,0
2018-06-12T01:10:36.313Z,0
2018-06-12T01:11:47.749Z,0
2018-06-12T01:12:57.884Z,0
2018-06-12T01:14:08.054Z,0
2018-06-12T01:15:18.399Z,0
2018-06-12T01:16:33.361Z,0
2018-06-12T01:17:43.549Z,0
2018-06-12T01:18:53.716Z,0
2018-06-12T01:20:04.529Z,0
2018-06-12T01:21:14.852Z,0
2018-06-12T01:22:25.008Z,0
2018-06-12T01:23:35.178Z,0
2018-06-12T01:24:44.791Z,0
2018-06-12T01:25:55.145Z,0
2018-06-12T01:27:05.345Z,0
2018-06-12T01:28:15.502Z,0
2018-06-12T01:29:25.694Z,0
2018-06-12T01:30:35.961Z,0
2018-06-12T01:31:47.203Z,0
2018-06-12T01:32:57.438Z,0
2018-06-12T01:34:07.770Z,0
2018-06-12T01:35:17.969Z,0
2018-06-12T01:36:27.852Z,0
2018-06-12T01:37:37.998Z,0
2018-06-12T01:38:48.165Z,0
2018-06-12T01:39:58.329Z,0
2018-06-12T01:41:08.471Z,0
2018-06-12T01:42:18.706Z,0
2018-06-12T01:43:28.858Z,0
2018-06-12T01:44:39.064Z,0
2018-06-12T01:45:49.202Z,0
2018-06-12T01:46:59.348Z,0
2018-06-12T01:48:09.472Z,0
2018-06-12T01:49:19.601Z,0
2018-06-12T01:50:29.749Z,0
2018-06-12T01:51:40.172Z,0
2018-06-12T01:52:50.394Z,0
2018-06-12T01:54:00.567Z,0
2018-06-12T01:55:10.488Z,0
2018-06-12T01:56:20.363Z,0
2018-06-12T01:57:30.715Z,0
2018-06-12T01:58:40.944Z,0
2018-06-12T01:59:51.338Z,0
2018-06-12T02:01:01.461Z,0
2018-06-12T02:02:11.591Z,0
2018-06-12T02:03:21.717Z,0
2018-06-12T02:04:31.865Z,0
2018-06-12T02:05:42.130Z,0
2018-06-12T02:06:52.486Z,0
2018-06-12T02:08:02.658Z,0
2018-06-12T02:09:12.801Z,0
2018-06-12T02:10:22.963Z,0
2018-06-12T02:11:33.101Z,0
2018-06-12T02:12:43.115Z,0
2018-06-12T02:13:53.413Z,0
2018-06-12T02:15:03.409Z,0
2018-06-12T02:16:13.709Z,0
2018-06-12T02:17:23.939Z,0
2018-06-12T02:18:34.169Z,0
2018-06-12T02:19:44.557Z,0
2018-06-12T02:20:54.844Z,0
2018-06-12T02:22:04.973Z,0
2018-06-12T02:23:15.143Z,0
2018-06-12T02:24:25.278Z,0
2018-06-12T02:25:35.089Z,0
2018-06-12T02:26:45.245Z,0
2018-06-12T02:27:55.418Z,0
2018-06-12T02:29:05.562Z,0
2018-06-12T02:30:15.791Z,0
2018-06-12T02:31:26.066Z,0
2018-06-12T02:32:36.217Z,0
2018-06-12T02:33:46.476Z,0
2018-06-12T02:34:56.616Z,0
2018-06-12T02:36:06.786Z,0
2018-06-12T02:37:16.938Z,0
2018-06-12T02:38:27.098Z,0
2018-06-12T02:39:37.272Z,0
2018-06-12T02:40:47.443Z,0
2018-06-12T02:41:57.618Z,0
2018-06-12T02:43:07.795Z,0
2018-06-12T02:44:17.967Z,0
2018-06-12T02:45:27.961Z,0
2018-06-12T02:46:37.850Z,0
2018-06-12T02:47:48.144Z,0
2018-06-12T02:48:58.302Z,0
2018-06-12T02:50:08.587Z,0
2018-06-12T02:51:18.757Z,0
2018-06-12T02:52:28.872Z,0
2018-06-12T02:53:39.028Z,0
2018-06-12T02:54:49.169Z,0
2018-06-12T02:55:59.340Z,0
2018-06-12T02:57:09.514Z,0
2018-06-12T02:58:19.712Z,5
2018-06-12T02:59:29.953Z,5
2018-06-12T03:00:40.167Z,5
2018-06-12T03:01:49.973Z,5
2018-06-12T03:02:59.861Z,5
2018-06-12T03:04:10.032Z,5
2018-06-12T03:05:19.897Z,5
2018-06-12T03:06:30.031Z,5
2018-06-12T03:07:40.196Z,5
2018-06-12T03:08:50.353Z,5
2018-06-12T03:10:00.489Z,10
2018-06-12T03:11:10.722Z,10
2018-06-12T03:12:20.861Z,10
2018-06-12T03:13:30.998Z,10
2018-06-12T03:14:41.143Z,10
2018-06-12T03:15:51.324Z,10
2018-06-12T03:17:01.568Z,10
2018-06-12T03:18:11.683Z,15
2018-06-12T03:19:21.453Z,15
2018-06-12T03:20:31.337Z,15
2018-06-12T03:21:41.506Z,15
2018-06-12T03:22:51.834Z,20
2018-06-12T03:24:02.068Z,20
2018-06-12T03:25:12.557Z,20
2018-06-12T03:26:22.685Z,20
2018-06-12T03:27:32.849Z,20
2018-06-12T03:28:43.000Z,25
2018-06-12T03:29:53.381Z,25
2018-06-12T03:31:18.197Z,25
2018-06-12T03:32:28.501Z,25
2018-06-12T03:33:38.641Z,30
2018-06-12T03:34:48.771Z,30
2018-06-12T03:35:58.895Z,30
2018-06-12T03:37:08.713Z,30
2018-06-12T03:38:19.237Z,30
2018-06-12T03:39:29.400Z,30
2018-06-12T03:40:39.549Z,30
2018-06-12T03:41:50.747Z,30
2018-06-12T03:43:00.915Z,35
2018-06-12T03:44:11.118Z,35
2018-06-12T03:45:21.016Z,35
2018-06-12T03:46:30.790Z,35
2018-06-12T03:47:40.942Z,35
2018-06-12T03:48:51.149Z,35
2018-06-12T03:50:01.292Z,40
2018-06-12T03:51:11.425Z,40
2018-06-12T03:52:21.615Z,40
2018-06-12T03:53:32.026Z,40
2018-06-12T03:54:42.168Z,40
2018-06-12T03:55:51.948Z,40
2018-06-12T03:57:01.858Z,40
2018-06-12T03:58:11.986Z,40
2018-06-12T03:59:22.109Z,40
2018-06-12T04:00:32.259Z,40
2018-06-12T04:01:42.424Z,40
2018-06-12T04:02:52.705Z,40
2018-06-12T04:04:02.957Z,40
2018-06-12T04:05:13.113Z,40
2018-06-12T04:06:23.150Z,40
2018-06-12T04:07:33.324Z,40
2018-06-12T04:08:43.474Z,40
2018-06-12T04:09:53.644Z,40
2018-06-12T04:11:03.817Z,45
2018-06-12T04:12:14.201Z,45
2018-06-12T04:13:24.365Z,45
2018-06-12T04:14:34.514Z,50
2018-06-12T04:15:44.681Z,50
2018-06-12T04:16:54.595Z,55
2018-06-12T04:18:04.608Z,55
2018-06-12T04:19:15.024Z,55
2018-06-12T04:20:25.173Z,60
2018-06-12T04:21:35.370Z,60
2018-06-12T04:22:45.252Z,60
2018-06-12T04:23:55.386Z,60
2018-06-12T04:25:05.531Z,60
2018-06-12T04:26:15.716Z,65
2018-06-12T04:27:25.887Z,65
2018-06-12T04:28:36.118Z,70
2018-06-12T04:29:46.292Z,70
2018-06-12T04:30:56.485Z,75
2018-06-12T04:32:06.797Z,75
2018-06-12T04:33:16.967Z,80
2018-06-12T04:34:27.150Z,85
2018-06-12T04:35:37.578Z,85
2018-06-12T04:36:47.773Z,85
2018-06-12T04:37:57.653Z,90
2018-06-12T04:39:07.814Z,95
2018-06-12T04:40:17.949Z,95
2018-06-12T04:41:28.119Z,95
2018-06-12T04:42:38.362Z,100
2018-06-12T04:43:48.243Z,100
2018-06-12T04:44:58.388Z,100
2018-06-12T04:46:08.717Z,105
2018-06-12T04:47:18.853Z,105
2018-06-12T04:48:29.031Z,105
2018-06-12T04:49:39.166Z,100
2018-06-12T04:50:49.316Z,100
2018-06-12T04:51:59.442Z,100
2018-06-12T04:53:09.638Z,100
2018-06-12T04:54:19.791Z,95
2018-06-12T04:55:29.927Z,95
2018-06-12T04:56:40.058Z,90
2018-06-12T04:57:50.210Z,85
2018-06-12T04:59:00.116Z,85
2018-06-12T05:00:10.316Z,85
2018-06-12T05:01:20.514Z,85
2018-06-12T05:02:30.669Z,85
2018-06-12T05:03:40.808Z,90
2018-06-12T05:04:51.075Z,90
2018-06-12T05:06:01.254Z,95
2018-06-12T05:07:11.407Z,100
2018-06-12T05:08:21.543Z,110
2018-06-12T05:09:31.681Z,120
2018-06-12T05:10:42.082Z,130
2018-06-12T05:11:51.999Z,130
2018-06-12T05:13:02.186Z,135
2018-06-12T05:14:12.338Z,140
2018-06-12T05:15:22.527Z,145
2018-06-12T05:16:32.412Z,155
2018-06-12T05:17:42.539Z,165
2018-06-12T05:18:52.699Z,170
2018-06-12T05:20:03.331Z,175
2018-06-12T05:21:13.737Z,175
2018-06-12T05:22:23.899Z,185
2018-06-12T05:23:34.063Z,185
2018-06-12T05:24:44.331Z,185
2018-06-12T05:25:54.700Z,185
2018-06-12T05:27:04.619Z,180
2018-06-12T05:28:14.762Z,185
2018-06-12T05:29:24.922Z,185
2018-06-12T05:30:35.300Z,190
2018-06-12T05:31:45.444Z,195
2018-06-12T05:32:55.648Z,195
2018-06-12T05:34:05.800Z,200
2018-06-12T05:35:15.976Z,200
2018-06-12T05:36:26.153Z,205
2018-06-12T05:37:36.344Z,205
2018-06-12T05:38:46.508Z,210
2018-06-12T05:39:56.652Z,210
2018-06-12T05:41:06.582Z,215
2018-06-12T05:42:16.740Z,215
2018-06-12T05:43:26.913Z,215
2018-06-12T05:44:36.747Z,210
2018-06-12T05:45:46.916Z,210
2018-06-12T05:46:57.211Z,210
2018-06-12T05:48:07.351Z,210
2018-06-12T05:49:17.577Z,215
2018-06-12T05:50:27.731Z,215
2018-06-12T05:51:37.926Z,225
2018-06-12T05:52:48.155Z,225
2018-06-12T05:53:58.377Z,225
2018-06-12T05:55:08.517Z,225
2018-06-12T05:56:18.651Z,230
2018-06-12T05:57:28.788Z,240
2018-06-12T05:58:39.190Z,250
2018-06-12T05:59:49.423Z,250
2018-06-12T06:00:59.555Z,245
2018-06-12T06:02:09.705Z,245
2018-06-12T06:03:19.864Z,250
2018-06-12T06:04:29.996Z,230
2018-06-12T06:05:40.254Z,230
2018-06-12T06:06:50.395Z,235
2018-06-12T06:08:00.779Z,240
2018-06-12T06:09:10.939Z,235
2018-06-12T06:10:21.086Z,235
2018-06-12T06:11:31.362Z,245
2018-06-12T06:12:41.555Z,255
2018-06-12T06:13:51.786Z,270
2018-06-12T06:15:01.968Z,280
2018-06-12T06:16:12.135Z,290
2018-06-12T06:17:22.413Z,295
2018-06-12T06:18:32.664Z,295
2018-06-12T06:19:42.793Z,300
2018-06-12T06:20:53.076Z,305
2018-06-12T06:22:03.375Z,310
2018-06-12T06:23:13.597Z,315
2018-06-12T06:24:24.006Z,320
2018-06-12T06:25:34.450Z,325
2018-06-12T06:26:44.637Z,330
2018-06-12T06:27:54.820Z,335
2018-06-12T06:29:05.060Z,340
2018-06-12T06:30:15.241Z,325
2018-06-12T06:31:25.404Z,320
2018-06-12T06:32:35.604Z,325
2018-06-12T06:33:45.745Z,315
2018-06-12T06:34:55.987Z,275
2018-06-12T06:36:06.147Z,255
2018-06-12T06:37:16.350Z,260
2018-06-12T06:38:26.499Z,285
2018-06-12T06:39:36.903Z,290
2018-06-12T06:40:47.049Z,295
2018-06-12T06:41:57.204Z,280
2018-06-12T06:43:07.628Z,265
2018-06-12T06:44:18.012Z,275
2018-06-12T06:45:28.243Z,280
2018-06-12T06:46:38.395Z,295
2018-06-12T06:47:48.591Z,310
2018-06-12T06:48:58.815Z,305
2018-06-12T06:50:09.052Z,275
2018-06-12T06:51:19.232Z,255
2018-06-12T06:52:29.406Z,260
2018-06-12T06:53:39.720Z,270
2018-06-12T06:54:49.610Z,260
2018-06-12T06:55:59.799Z,235
2018-06-12T06:57:10.048Z,215
2018-06-12T06:58:20.277Z,210
2018-06-12T06:59:30.435Z,235
2018-06-12T07:00:40.623Z,250
2018-06-12T07:01:50.597Z,255
2018-06-12T07:03:00.783Z,280
2018-06-12T07:04:10.955Z,315
2018-06-12T07:05:21.104Z,360
2018-06-12T07:06:31.265Z,390
2018-06-12T07:07:41.156Z,415
2018-06-12T07:08:51.309Z,485
2018-06-12T07:10:01.230Z,555
2018-06-12T07:11:11.379Z,590
2018-06-12T07:12:21.528Z,630
2018-06-12T07:13:31.701Z,615
2018-06-12T07:14:41.856Z,570
2018-06-12T07:15:52.108Z,505
2018-06-12T07:17:02.301Z,470
2018-06-12T07:18:12.464Z,470
2018-06-12T07:19:22.633Z,445
2018-06-12T07:20:32.861Z,425
2018-06-12T07:21:43.080Z,380
2018-06-12T07:22:53.375Z,315
2018-06-12T07:24:03.517Z,255
2018-06-12T07:25:13.681Z,215
2018-06-12T07:26:23.806Z,190
2018-06-12T07:27:33.980Z,175
2018-06-12T07:28:44.138Z,170
2018-06-12T07:29:54.306Z,175
2018-06-12T07:31:04.476Z,200
2018-06-12T07:32:14.758Z,220
2018-06-12T07:33:24.946Z,235
2018-06-12T07:34:35.091Z,245
2018-06-12T07:35:45.315Z,255
2018-06-12T07:36:55.528Z,270
2018-06-12T07:38:05.348Z,290
2018-06-12T07:39:15.510Z,330
2018-06-12T07:40:25.650Z,395
2018-06-12T07:41:35.786Z,445
2018-06-12T07:42:45.944Z,470
2018-06-12T07:43:56.092Z,490
2018-06-12T07:45:05.976Z,515
2018-06-12T07:46:16.169Z,525
2018-06-12T07:47:26.302Z,555
2018-06-12T07:48:36.485Z,565
2018-06-12T07:49:46.691Z,480
2018-06-12T07:50:56.870Z,380
2018-06-12T07:52:07.243Z,320
2018-06-12T07:53:17.415Z,290
2018-06-12T07:54:27.564Z,305
2018-06-12T07:55:37.527Z,295
2018-06-12T07:56:47.686Z,280
2018-06-12T07:57:57.817Z,265
2018-06-12T07:59:08.029Z,260
2018-06-12T08:00:18.201Z,260
2018-06-12T08:01:28.337Z,270
2018-06-12T08:02:38.531Z,295
2018-06-12T08:03:48.727Z,315
2018-06-12T08:04:58.938Z,350
2018-06-12T08:06:08.746Z,410
2018-06-12T08:07:18.897Z,435
2018-06-12T08:08:29.106Z,425
2018-06-12T08:09:39.328Z,415
2018-06-12T08:10:49.514Z,400
2018-06-12T08:11:59.662Z,350
2018-06-12T08:13:10.231Z,295
2018-06-12T08:14:20.370Z,300
2018-06-12T08:15:30.555Z,315
2018-06-12T08:16:40.738Z,310
2018-06-12T08:17:50.921Z,260
2018-06-12T08:19:01.073Z,240
2018-06-12T08:20:11.260Z,225
2018-06-12T08:21:22.408Z,220
2018-06-12T08:22:32.559Z,250
2018-06-12T08:23:42.740Z,275
2018-06-12T08:24:52.891Z,280
2018-06-12T08:26:03.040Z,305
2018-06-12T08:27:13.234Z,320
2018-06-12T08:28:23.393Z,340
2018-06-12T08:29:33.784Z,355
2018-06-12T08:30:44.531Z,385
2018-06-12T08:31:54.668Z,435
2018-06-12T08:33:04.947Z,490
2018-06-12T08:34:15.114Z,520
2018-06-12T08:35:25.249Z,520
2018-06-12T08:36:35.492Z,530
2018-06-12T08:37:45.646Z,545
2018-06-12T08:38:55.804Z,535
2018-06-12T08:40:06.051Z,515
2018-06-12T08:41:16.401Z,465
2018-06-12T08:42:26.560Z,365
2018-06-12T08:43:36.726Z,320
2018-06-12T08:44:46.897Z,295
2018-06-12T08:45:56.794Z,285
2018-06-12T08:47:06.949Z,300
2018-06-12T08:48:17.295Z,335
2018-06-12T08:49:27.431Z,375
2018-06-12T08:50:37.926Z,390
2018-06-12T08:51:48.082Z,405
2018-06-12T08:52:58.244Z,385
2018-06-12T08:54:08.388Z,385
2018-06-12T08:55:18.647Z,385
2018-06-12T08:56:28.785Z,390
2018-06-12T08:57:38.954Z,390
2018-06-12T08:58:49.162Z,355
2018-06-12T08:59:59.474Z,335
2018-06-12T09:01:09.621Z,325
2018-06-12T09:02:19.827Z,310
2018-06-12T09:03:30.454Z,310
2018-06-12T09:04:40.674Z,310
2018-06-12T09:05:50.862Z,310
2018-06-12T09:07:01.031Z,315
2018-06-12T09:08:11.219Z,335
2018-06-12T09:09:21.348Z,360
2018-06-12T09:10:31.724Z,365
2018-06-12T09:11:41.897Z,350
2018-06-12T09:12:52.060Z,350
2018-06-12T09:14:02.267Z,365
2018-06-12T09:15:12.405Z,380
2018-06-12T09:16:22.609Z,385
2018-06-12T09:17:32.788Z,405
2018-06-12T09:18:43.013Z,405
2018-06-12T09:19:53.160Z,410
2018-06-12T09:21:03.365Z,435
2018-06-12T09:22:13.528Z,500
2018-06-12T09:23:23.779Z,585
2018-06-12T09:24:34.084Z,645
2018-06-12T09:25:44.312Z,715
2018-06-12T09:26:54.569Z,795
2018-06-12T09:28:04.798Z,950
2018-06-12T09:29:14.957Z,990
2018-06-12T09:30:25.124Z,915
2018-06-12T09:31:35.359Z,1010
2018-06-12T09:32:46.135Z,865
2018-06-12T09:33:56.278Z,765
2018-06-12T09:35:06.524Z,665
2018-06-12T09:36:16.691Z,630
2018-06-12T09:37:26.577Z,735
2018-06-12T09:38:36.793Z,730
2018-06-12T09:39:47.000Z,755
2018-06-12T09:40:57.172Z,1000
2018-06-12T09:42:07.498Z,690
2018-06-12T09:43:18.008Z,720
2018-06-12T09:44:28.158Z,705
2018-06-12T09:45:38.292Z,700
2018-06-12T09:46:48.468Z,840
2018-06-12T09:47:58.621Z,915
2018-06-12T09:49:09.036Z,860
2018-06-12T09:50:19.374Z,890
2018-06-12T09:51:29.577Z,895
2018-06-12T09:52:39.819Z,725
2018-06-12T09:53:50.015Z,510
2018-06-12T09:55:00.152Z,410
2018-06-12T09:56:10.359Z,355
2018-06-12T09:57:20.513Z,330
2018-06-12T09:58:30.752Z,310
2018-06-12T09:59:40.939Z,300
2018-06-12T10:00:51.080Z,305
2018-06-12T10:02:01.292Z,330
2018-06-12T10:03:11.467Z,350
2018-06-12T10:04:21.627Z,360
2018-06-12T10:05:31.790Z,355
2018-06-12T10:06:41.803Z,340
2018-06-12T10:07:52.074Z,330
2018-06-12T10:09:02.247Z,325
2018-06-12T10:10:12.775Z,325
2018-06-12T10:11:22.906Z,325
2018-06-12T10:12:33.113Z,320
2018-06-12T10:13:43.481Z,315
2018-06-12T10:14:53.682Z,315
2018-06-12T10:16:03.572Z,325
2018-06-12T10:17:13.741Z,360
2018-06-12T10:18:23.869Z,400
2018-06-12T10:19:34.037Z,425
2018-06-12T10:20:44.287Z,440
2018-06-12T10:21:54.442Z,460
2018-06-12T10:23:04.626Z,500
2018-06-12T10:24:14.868Z,540
2018-06-12T10:25:24.699Z,635
2018-06-12T10:26:34.913Z,630
2018-06-12T10:27:45.088Z,580
2018-06-12T10:28:56.329Z,515
2018-06-12T10:30:06.511Z,465
2018-06-12T10:31:16.705Z,415
2018-06-12T10:32:26.962Z,385
2018-06-12T10:33:37.146Z,370
2018-06-12T10:35:19.224Z,360
2018-06-12T10:36:29.416Z,345
2018-06-12T10:37:39.884Z,340
2018-06-12T10:38:50.058Z,345
2018-06-12T10:40:00.218Z,345
2018-06-12T10:41:10.409Z,345
2018-06-12T10:42:20.600Z,345
2018-06-12T10:43:30.752Z,360
2018-06-12T10:44:40.987Z,385
2018-06-12T10:45:51.163Z,395
2018-06-12T10:47:01.342Z,410
2018-06-12T10:48:11.228Z,445
2018-06-12T10:49:21.380Z,515
2018-06-12T10:50:31.539Z,600
2018-06-12T10:51:41.692Z,605
2018-06-12T10:52:51.954Z,600
2018-06-12T10:54:02.231Z,625
2018-06-12T10:55:12.408Z,645
2018-06-12T10:56:22.651Z,660
2018-06-12T10:57:32.826Z,675
2018-06-12T10:58:43.055Z,660
2018-06-12T10:59:53.305Z,670
2018-06-12T11:01:03.471Z,655
2018-06-12T11:02:13.648Z,655
2018-06-12T11:03:23.823Z,615
2018-06-12T11:04:33.724Z,625
2018-06-12T11:05:43.909Z,630
2018-06-12T11:06:53.791Z,610
2018-06-12T11:08:03.955Z,560
2018-06-12T11:09:14.141Z,510
2018-06-12T11:10:24.318Z,490
2018-06-12T11:11:34.606Z,490
2018-06-12T11:12:44.876Z,495
2018-06-12T11:13:54.769Z,500
2018-06-12T11:15:04.932Z,530
2018-06-12T11:16:15.138Z,560
2018-06-12T11:17:25.290Z,635
2018-06-12T11:18:35.448Z,680
2018-06-12T11:19:45.650Z,675
2018-06-12T11:20:56.022Z,730
2018-06-12T11:22:06.172Z,680
2018-06-12T11:23:16.333Z,705
2018-06-12T11:24:26.144Z,760
2018-06-12T11:25:36.308Z,765
2018-06-12T11:26:46.700Z,815
2018-06-12T11:27:56.845Z,835
2018-06-12T11:29:07.026Z,990
2018-06-12T11:30:17.174Z,1320
2018-06-12T11:31:27.428Z,875
2018-06-12T11:32:37.597Z,710
2018-06-12T11:33:47.836Z,600
2018-06-12T11:34:57.977Z,555
2018-06-12T11:36:08.254Z,545
2018-06-12T11:37:18.508Z,640
2018-06-12T11:38:28.734Z,805
2018-06-12T11:39:38.963Z,980
2018-06-12T11:40:49.372Z,915
2018-06-12T11:41:59.692Z,775
2018-06-12T11:43:09.587Z,675
2018-06-12T11:44:19.781Z,770
2018-06-12T11:45:29.980Z,845
2018-06-12T11:46:39.911Z,830
2018-06-12T11:47:49.820Z,835
2018-06-12T11:49:00.108Z,915
2018-06-12T11:50:10.734Z,1095
2018-06-12T11:51:21.060Z,1420
2018-06-12T11:52:31.333Z,1430
2018-06-12T11:53:41.603Z,1015
2018-06-12T11:54:51.774Z,835
2018-06-12T11:56:01.928Z,850
2018-06-12T11:57:12.103Z,1765
2018-06-12T11:58:22.035Z,865
2018-06-12T11:59:32.218Z,685
2018-06-12T12:00:42.613Z,555
2018-06-12T12:01:53.190Z,485
2018-06-12T12:03:03.389Z,435
2018-06-12T12:04:13.282Z,425
2018-06-12T12:05:23.438Z,465
2018-06-12T12:06:33.612Z,495
2018-06-12T12:07:43.789Z,515
2018-06-12T12:08:53.963Z,545
2018-06-12T12:10:04.196Z,595
2018-06-12T12:11:14.359Z,650
2018-06-12T12:12:24.603Z,740
2018-06-12T12:13:34.537Z,1000
2018-06-12T12:14:44.695Z,1010
2018-06-12T12:15:54.906Z,945
2018-06-12T12:17:05.450Z,1040
2018-06-12T12:18:15.386Z,1755
2018-06-12T12:19:25.554Z,1175
2018-06-12T12:20:35.776Z,1100
2018-06-12T12:21:45.934Z,855
2018-06-12T12:22:56.107Z,760
2018-06-12T12:24:06.293Z,710
2018-06-12T12:25:16.524Z,675
2018-06-12T12:26:26.762Z,770
2018-06-12T12:27:36.777Z,3400
2018-06-12T12:28:47.077Z,3675
2018-06-12T12:29:57.370Z,3565
2018-06-12T12:31:07.312Z,3270
2018-06-12T12:32:17.543Z,3145
2018-06-12T12:33:27.765Z,3320
2018-06-12T12:34:37.927Z,2215
2018-06-12T12:35:48.107Z,2935
2018-06-12T12:36:58.018Z,1585
2018-06-12T12:38:08.175Z,905
2018-06-12T12:39:18.362Z,815
2018-06-12T12:40:30.189Z,835
2018-06-12T12:41:40.106Z,740
2018-06-12T12:42:50.484Z,860
2018-06-12T12:44:00.697Z,900
2018-06-12T12:45:10.842Z,815
2018-06-12T12:46:20.825Z,775
2018-06-12T12:47:31.011Z,760
2018-06-12T12:48:41.480Z,810
2018-06-12T12:49:51.722Z,595
2018-06-12T12:51:01.935Z,545
2018-06-12T12:52:12.087Z,470
2018-06-12T12:53:22.269Z,435
2018-06-12T12:54:32.501Z,410
2018-06-12T12:55:42.695Z,440
2018-06-12T12:56:53.836Z,570
2018-06-12T12:58:03.989Z,1280
2018-06-12T12:59:14.469Z,1225
2018-06-12T13:00:24.641Z,2055
2018-06-12T13:01:34.847Z,1215
2018-06-12T13:02:45.053Z,1070
2018-06-12T13:03:55.324Z,840
2018-06-12T13:05:05.558Z,795
2018-06-12T13:06:15.961Z,840
2018-06-12T13:07:26.161Z,1005
2018-06-12T13:08:36.375Z,1105
2018-06-12T13:09:47.526Z,970
2018-06-12T13:10:57.823Z,880
2018-06-12T13:12:08.041Z,745
2018-06-12T13:13:18.233Z,665
2018-06-12T13:14:28.448Z,715
2018-06-12T13:15:38.635Z,815
2018-06-12T13:16:48.816Z,925
2018-06-12T13:17:59.051Z,3100
2018-06-12T13:19:09.196Z,1790
2018-06-12T13:20:19.649Z,1090
2018-06-12T13:21:29.438Z,630
2018-06-12T13:22:39.624Z,745
2018-06-12T13:23:49.809Z,640
2018-06-12T13:25:00.213Z,560
2018-06-12T13:26:10.405Z,540
2018-06-12T13:27:20.844Z,585
2018-06-12T13:28:31.057Z,775
2018-06-12T13:29:41.238Z,995
2018-06-12T13:30:51.483Z,3080
2018-06-12T13:32:01.688Z,850
2018-06-12T13:33:11.903Z,615
2018-06-12T13:34:22.091Z,500
2018-06-12T13:35:32.323Z,445
2018-06-12T13:36:42.535Z,420
2018-06-12T13:37:52.749Z,410
2018-06-12T13:39:02.972Z,395
2018-06-12T13:40:13.243Z,395
2018-06-12T13:41:23.175Z,420
2018-06-12T13:42:33.380Z,465
2018-06-12T13:43:43.614Z,525
2018-06-12T13:44:53.861Z,550
2018-06-12T13:46:03.856Z,540
2018-06-12T13:47:13.640Z,560
2018-06-12T13:48:23.840Z,685
2018-06-12T13:49:34.069Z,855
2018-06-12T13:50:44.432Z,755
2018-06-12T13:51:54.648Z,745
2018-06-12T13:53:04.854Z,820
2018-06-12T13:54:15.081Z,725
2018-06-12T13:55:25.254Z,780
2018-06-12T13:56:35.428Z,690
2018-06-12T13:57:45.352Z,625
2018-06-12T13:58:55.590Z,580
2018-06-12T14:00:06.004Z,580
2018-06-12T14:01:16.236Z,570
2018-06-12T14:02:26.418Z,615
2018-06-12T14:03:36.645Z,605
2018-06-12T14:04:46.832Z,575
2018-06-12T14:05:57.111Z,585
2018-06-12T14:07:07.568Z,570
2018-06-12T14:08:17.810Z,635
2018-06-12T14:09:28.038Z,1255
2018-06-12T14:10:38.204Z,1445
2018-06-12T14:11:48.411Z,895
2018-06-12T14:12:58.580Z,700
2018-06-12T14:14:08.948Z,1175
2018-06-12T14:15:19.128Z,740
2018-06-12T14:16:29.300Z,1130
2018-06-12T14:17:39.557Z,2300
2018-06-12T14:18:49.826Z,670
2018-06-12T14:19:59.984Z,555
2018-06-12T14:21:10.210Z,560
2018-06-12T14:22:20.405Z,545
2018-06-12T14:23:30.626Z,500
2018-06-12T14:24:40.817Z,455
2018-06-12T14:25:50.996Z,410
2018-06-12T14:27:01.378Z,390
2018-06-12T14:28:11.900Z,430
2018-06-12T14:29:22.091Z,600
2018-06-12T14:30:32.342Z,525
2018-06-12T14:31:42.550Z,540
2018-06-12T14:32:52.761Z,525
2018-06-12T14:34:02.897Z,545
2018-06-12T14:35:13.200Z,595
2018-06-12T14:36:23.418Z,720
2018-06-12T14:37:33.333Z,925
2018-06-12T14:38:43.536Z,695
2018-06-12T14:39:53.792Z,580
2018-06-12T14:41:04.275Z,590
2018-06-12T14:42:14.521Z,600
2018-06-12T14:43:24.694Z,720
2018-06-12T14:44:34.941Z,770
2018-06-12T14:45:45.168Z,685
2018-06-12T14:46:55.484Z,1335
2018-06-12T14:48:05.705Z,1455
2018-06-12T14:49:15.907Z,1300
2018-06-12T14:50:26.111Z,1140
2018-06-12T14:51:36.287Z,1385
2018-06-12T14:52:46.537Z,1195
2018-06-12T14:53:56.693Z,545
2018-06-12T14:55:06.986Z,495
2018-06-12T14:56:17.296Z,490
2018-06-12T14:57:27.538Z,475
2018-06-12T14:58:37.745Z,445
2018-06-12T14:59:47.909Z,405
2018-06-12T15:00:59.088Z,375
2018-06-12T15:02:09.483Z,360
2018-06-12T15:03:19.656Z,350
2018-06-12T15:04:29.845Z,530
2018-06-12T15:05:40.031Z,375
2018-06-12T15:06:50.215Z,405
2018-06-12T15:08:00.078Z,425
2018-06-12T15:09:11.280Z,410
2018-06-12T15:10:21.800Z,370
2018-06-12T15:11:32.190Z,340
2018-06-12T15:12:42.480Z,320
2018-06-12T15:13:52.651Z,315
2018-06-12T15:15:02.837Z,345
2018-06-12T15:16:12.986Z,375
2018-06-12T15:17:23.165Z,435
2018-06-12T15:18:33.429Z,490
2018-06-12T15:19:43.670Z,530
2018-06-12T15:20:53.852Z,570
2018-06-12T15:22:04.174Z,560
2018-06-12T15:23:14.355Z,470
2018-06-12T15:24:24.531Z,415
2018-06-12T15:25:34.766Z,365
2018-06-12T15:26:44.943Z,355
2018-06-12T15:27:55.123Z,360
2018-06-12T15:29:05.381Z,365
2018-06-12T15:30:15.857Z,350
2018-06-12T15:31:26.055Z,335
2018-06-12T15:32:36.262Z,345
2018-06-12T15:33:46.229Z,345
2018-06-12T15:34:56.495Z,380
2018-06-12T15:36:06.675Z,410
2018-06-12T15:37:16.906Z,435
2018-06-12T15:38:27.129Z,465
2018-06-12T15:39:37.424Z,460
2018-06-12T15:40:47.641Z,420
2018-06-12T15:41:57.926Z,380
2018-06-12T15:43:08.150Z,350
2018-06-12T15:44:18.339Z,330
2018-06-12T15:45:28.288Z,325
2018-06-12T15:46:38.715Z,335
2018-06-12T15:47:48.932Z,325
2018-06-12T15:48:59.089Z,315
2018-06-12T15:50:09.361Z,325
2018-06-12T15:51:19.585Z,320
2018-06-12T15:52:29.857Z,320
2018-06-12T15:53:40.086Z,335
2018-06-12T15:54:50.475Z,345
2018-06-12T15:56:00.803Z,375
2018-06-12T15:57:11.070Z,405
2018-06-12T15:58:21.331Z,420
2018-06-12T15:59:31.511Z,415
2018-06-12T16:00:41.787Z,395
2018-06-12T16:01:52.146Z,405
2018-06-12T16:03:02.387Z,435
2018-06-12T16:04:12.643Z,465
2018-06-12T16:05:22.839Z,505
2018-06-12T16:06:33.015Z,505
2018-06-12T16:07:43.448Z,500
2018-06-12T16:08:53.608Z,490
2018-06-12T16:10:03.800Z,470
2018-06-12T16:11:14.035Z,480
2018-06-12T16:12:24.280Z,485
2018-06-12T16:13:34.504Z,455
2018-06-12T16:14:44.693Z,425
2018-06-12T16:15:54.920Z,430
2018-06-12T16:17:05.116Z,420
2018-06-12T16:18:15.386Z,440
2018-06-12T16:19:25.636Z,400
2018-06-12T16:20:35.891Z,380
2018-06-12T16:21:46.115Z,355